sensor_id;sensor_type;location;lat;lon;timestamp;temperature;humidity
13072;DHT22;6602;58.934;11.166;2023-05-16T00:01:21;12.90;99.90
13072;DHT22;6602;58.934;11.166;2023-05-16T00:06:24;12.90;99.90
13072;DHT22;6602;58.934;11.166;2023-05-16T00:11:28;12.80;99.90
13072;DHT22;6602;58.934;11.166;2023-05-16T00:16:31;12.80;99.90
13072;DHT22;6602;58.934;11.166;2023-05-16T00:21:33;12.70;99.90
13072;DHT22;6602;58.934;11.166;2023-05-16T00:26:36;12.70;99.90
13072;DHT22;6602;58.934;11.166;2023-05-16T00:31:42;12.70;99.90
13072;DHT22;6602;58.934;11.166;2023-05-16T00:36:43;12.60;99.90
13072;DHT22;6602;58.934;11.166;2023-05-16T00:41:51;12.50;99.90
13072;DHT22;6602;58.934;11.166;2023-05-16T00:46:54;12.40;99.90
13072;DHT22;6602;58.934;11.166;2023-05-16T00:52:09;12.30;99.90
13072;DHT22;6602;58.934;11.166;2023-05-16T00:57:14;12.30;99.90
13072;DHT22;6602;58.934;11.166;2023-05-16T01:02:16;12.20;99.90
13072;DHT22;6602;58.934;11.166;2023-05-16T01:07:17;12.20;99.90
13072;DHT22;6602;58.934;11.166;2023-05-16T01:17:59;12.20;99.90
13072;DHT22;6602;58.934;11.166;2023-05-16T01:23:04;12.10;99.90
13072;DHT22;6602;58.934;11.166;2023-05-16T01:28:15;12.10;99.90
13072;DHT22;6602;58.934;11.166;2023-05-16T01:33:17;12.00;99.90
13072;DHT22;6602;58.934;11.166;2023-05-16T01:38:26;12.00;99.90
13072;DHT22;6602;58.934;11.166;2023-05-16T01:43:43;11.90;99.90
13072;DHT22;6602;58.934;11.166;2023-05-16T01:49:16;11.90;99.90
13072;DHT22;6602;58.934;11.166;2023-05-16T01:54:31;11.80;99.90
13072;DHT22;6602;58.934;11.166;2023-05-16T01:59:34;11.80;99.90
13072;DHT22;6602;58.934;11.166;2023-05-16T02:04:38;11.80;99.90
13072;DHT22;6602;58.934;11.166;2023-05-16T02:09:39;11.70;99.90
13072;DHT22;6602;58.934;11.166;2023-05-16T02:14:41;11.60;99.90
13072;DHT22;6602;58.934;11.166;2023-05-16T02:19:42;11.60;99.90
13072;DHT22;6602;58.934;11.166;2023-05-16T02:24:43;11.70;99.90
13072;DHT22;6602;58.934;11.166;2023-05-16T02:29:44;11.60;99.90
13072;DHT22;6602;58.934;11.166;2023-05-16T02:34:51;11.60;99.90
13072;DHT22;6602;58.934;11.166;2023-05-16T02:39:52;11.70;99.90
13072;DHT22;6602;58.934;11.166;2023-05-16T02:44:53;11.80;99.90
13072;DHT22;6602;58.934;11.166;2023-05-16T02:49:54;11.90;99.90
13072;DHT22;6602;58.934;11.166;2023-05-16T02:54:59;11.90;99.90
13072;DHT22;6602;58.934;11.166;2023-05-16T03:00:00;12.00;99.90
13072;DHT22;6602;58.934;11.166;2023-05-16T03:05:02;12.00;99.90
13072;DHT22;6602;58.934;11.166;2023-05-16T03:10:09;11.90;99.90
13072;DHT22;6602;58.934;11.166;2023-05-16T03:15:11;11.80;99.90
13072;DHT22;6602;58.934;11.166;2023-05-16T03:20:13;11.80;99.90
13072;DHT22;6602;58.934;11.166;2023-05-16T03:25:17;11.80;99.90
13072;DHT22;6602;58.934;11.166;2023-05-16T03:30:19;11.80;99.90
13072;DHT22;6602;58.934;11.166;2023-05-16T03:35:21;11.70;99.90
13072;DHT22;6602;58.934;11.166;2023-05-16T03:40:22;11.80;99.90
13072;DHT22;6602;58.934;11.166;2023-05-16T03:45:24;11.70;99.90
13072;DHT22;6602;58.934;11.166;2023-05-16T03:50:31;11.70;99.90
13072;DHT22;6602;58.934;11.166;2023-05-16T03:55:34;11.70;99.90
13072;DHT22;6602;58.934;11.166;2023-05-16T04:00:37;11.70;99.90
13072;DHT22;6602;58.934;11.166;2023-05-16T04:05:38;11.80;99.90
13072;DHT22;6602;58.934;11.166;2023-05-16T04:10:41;11.80;99.90
13072;DHT22;6602;58.934;11.166;2023-05-16T04:15:49;11.80;99.90
13072;DHT22;6602;58.934;11.166;2023-05-16T04:20:50;11.90;99.90
13072;DHT22;6602;58.934;11.166;2023-05-16T04:25:52;11.90;99.90
13072;DHT22;6602;58.934;11.166;2023-05-16T04:30:55;12.00;99.90
13072;DHT22;6602;58.934;11.166;2023-05-16T04:35:56;12.00;99.90
13072;DHT22;6602;58.934;11.166;2023-05-16T04:40:58;12.00;99.90
13072;DHT22;6602;58.934;11.166;2023-05-16T04:45:59;12.00;99.90
13072;DHT22;6602;58.934;11.166;2023-05-16T04:51:00;12.10;99.90
13072;DHT22;6602;58.934;11.166;2023-05-16T04:56:04;12.20;99.90
13072;DHT22;6602;58.934;11.166;2023-05-16T05:01:06;12.30;99.90
13072;DHT22;6602;58.934;11.166;2023-05-16T05:06:07;12.50;99.90
13072;DHT22;6602;58.934;11.166;2023-05-16T05:11:11;12.60;99.90
13072;DHT22;6602;58.934;11.166;2023-05-16T05:16:12;12.70;99.90
13072;DHT22;6602;58.934;11.166;2023-05-16T05:21:14;12.80;99.90
13072;DHT22;6602;58.934;11.166;2023-05-16T05:26:16;13.00;99.90
13072;DHT22;6602;58.934;11.166;2023-05-16T05:31:17;13.00;99.90
13072;DHT22;6602;58.934;11.166;2023-05-16T05:36:18;13.10;99.90
13072;DHT22;6602;58.934;11.166;2023-05-16T05:41:22;13.30;99.90
13072;DHT22;6602;58.934;11.166;2023-05-16T05:46:24;13.30;99.90
13072;DHT22;6602;58.934;11.166;2023-05-16T05:51:25;13.70;99.90
13072;DHT22;6602;58.934;11.166;2023-05-16T05:56:29;14.00;99.90
13072;DHT22;6602;58.934;11.166;2023-05-16T06:01:30;14.30;99.90
13072;DHT22;6602;58.934;11.166;2023-05-16T06:06:31;14.50;99.90
13072;DHT22;6602;58.934;11.166;2023-05-16T06:11:33;14.90;99.90
13072;DHT22;6602;58.934;11.166;2023-05-16T06:16:34;15.00;99.90
13072;DHT22;6602;58.934;11.166;2023-05-16T06:21:36;15.00;99.90
13072;DHT22;6602;58.934;11.166;2023-05-16T06:26:42;15.20;99.90
13072;DHT22;6602;58.934;11.166;2023-05-16T06:31:48;15.30;99.90
13072;DHT22;6602;58.934;11.166;2023-05-16T06:37:01;15.30;99.90
13072;DHT22;6602;58.934;11.166;2023-05-16T06:42:06;15.30;99.90
13072;DHT22;6602;58.934;11.166;2023-05-16T06:47:08;15.20;99.90
13072;DHT22;6602;58.934;11.166;2023-05-16T06:52:09;15.20;99.90
13072;DHT22;6602;58.934;11.166;2023-05-16T06:57:21;15.30;99.90
13072;DHT22;6602;58.934;11.166;2023-05-16T07:02:23;15.20;99.90
13072;DHT22;6602;58.934;11.166;2023-05-16T07:07:25;15.00;99.90
13072;DHT22;6602;58.934;11.166;2023-05-16T07:12:26;15.10;99.90
13072;DHT22;6602;58.934;11.166;2023-05-16T07:17:32;15.00;99.90
13072;DHT22;6602;58.934;11.166;2023-05-16T07:22:34;14.90;99.90
13072;DHT22;6602;58.934;11.166;2023-05-16T07:27:35;14.70;99.90
13072;DHT22;6602;58.934;11.166;2023-05-16T07:32:36;14.50;99.90
13072;DHT22;6602;58.934;11.166;2023-05-16T07:37:38;14.30;99.90
13072;DHT22;6602;58.934;11.166;2023-05-16T07:42:45;14.30;99.90
13072;DHT22;6602;58.934;11.166;2023-05-16T07:47:49;14.10;99.90
13072;DHT22;6602;58.934;11.166;2023-05-16T07:52:52;14.00;99.90
13072;DHT22;6602;58.934;11.166;2023-05-16T07:58:05;14.30;99.90
13072;DHT22;6602;58.934;11.166;2023-05-16T08:03:09;14.40;99.90
13072;DHT22;6602;58.934;11.166;2023-05-16T08:08:11;14.30;99.90
13072;DHT22;6602;58.934;11.166;2023-05-16T08:13:13;14.40;99.90
13072;DHT22;6602;58.934;11.166;2023-05-16T08:18:42;14.50;99.90
13072;DHT22;6602;58.934;11.166;2023-05-16T08:23:50;14.90;99.90
13072;DHT22;6602;58.934;11.166;2023-05-16T08:28:51;15.30;99.90
13072;DHT22;6602;58.934;11.166;2023-05-16T08:33:56;15.60;99.90
13072;DHT22;6602;58.934;11.166;2023-05-16T08:39:05;15.90;99.90
13072;DHT22;6602;58.934;11.166;2023-05-16T08:44:21;15.90;99.90
13072;DHT22;6602;58.934;11.166;2023-05-16T08:49:34;15.20;99.90
13072;DHT22;6602;58.934;11.166;2023-05-16T08:54:45;15.10;99.90
13072;DHT22;6602;58.934;11.166;2023-05-16T08:59:46;15.10;99.90
13072;DHT22;6602;58.934;11.166;2023-05-16T09:04:48;15.30;99.90
13072;DHT22;6602;58.934;11.166;2023-05-16T09:09:55;15.50;99.90
13072;DHT22;6602;58.934;11.166;2023-05-16T09:14:57;15.90;99.90
13072;DHT22;6602;58.934;11.166;2023-05-16T09:19:58;15.80;99.90
13072;DHT22;6602;58.934;11.166;2023-05-16T09:24:59;15.90;99.90
13072;DHT22;6602;58.934;11.166;2023-05-16T09:30:02;16.30;99.90
13072;DHT22;6602;58.934;11.166;2023-05-16T09:35:04;17.00;99.90
13072;DHT22;6602;58.934;11.166;2023-05-16T09:40:05;17.50;99.90
13072;DHT22;6602;58.934;11.166;2023-05-16T09:45:11;17.80;99.90
13072;DHT22;6602;58.934;11.166;2023-05-16T09:50:20;17.80;99.90
13072;DHT22;6602;58.934;11.166;2023-05-16T09:55:23;17.70;99.90
13072;DHT22;6602;58.934;11.166;2023-05-16T10:00:32;17.70;99.90
13072;DHT22;6602;58.934;11.166;2023-05-16T10:05:33;17.80;99.90
13072;DHT22;6602;58.934;11.166;2023-05-16T10:10:39;17.90;99.90
13072;DHT22;6602;58.934;11.166;2023-05-16T10:15:41;18.30;99.90
13072;DHT22;6602;58.934;11.166;2023-05-16T10:20:44;18.10;99.90
13072;DHT22;6602;58.934;11.166;2023-05-16T10:25:56;18.10;99.90
13072;DHT22;6602;58.934;11.166;2023-05-16T10:31:01;17.90;99.90
13072;DHT22;6602;58.934;11.166;2023-05-16T10:36:10;17.80;99.90
13072;DHT22;6602;58.934;11.166;2023-05-16T10:41:14;17.50;99.90
13072;DHT22;6602;58.934;11.166;2023-05-16T10:46:20;16.90;99.90
13072;DHT22;6602;58.934;11.166;2023-05-16T10:51:36;16.40;99.90
13072;DHT22;6602;58.934;11.166;2023-05-16T10:56:37;16.60;99.90
13072;DHT22;6602;58.934;11.166;2023-05-16T11:01:39;16.50;99.90
13072;DHT22;6602;58.934;11.166;2023-05-16T11:06:48;16.60;99.90
13072;DHT22;6602;58.934;11.166;2023-05-16T11:12:02;16.80;99.90
13072;DHT22;6602;58.934;11.166;2023-05-16T11:17:19;17.30;99.90
13072;DHT22;6602;58.934;11.166;2023-05-16T11:22:34;18.00;99.90
13072;DHT22;6602;58.934;11.166;2023-05-16T11:27:47;18.00;99.90
13072;DHT22;6602;58.934;11.166;2023-05-16T11:32:48;18.20;99.90
13072;DHT22;6602;58.934;11.166;2023-05-16T11:37:54;18.20;99.90
13072;DHT22;6602;58.934;11.166;2023-05-16T11:42:59;18.20;99.90
13072;DHT22;6602;58.934;11.166;2023-05-16T11:48:07;18.00;99.90
13072;DHT22;6602;58.934;11.166;2023-05-16T11:53:11;18.10;99.90
13072;DHT22;6602;58.934;11.166;2023-05-16T11:58:16;18.30;99.90
13072;DHT22;6602;58.934;11.166;2023-05-16T12:03:25;18.10;99.90
13072;DHT22;6602;58.934;11.166;2023-05-16T12:08:26;18.40;99.90
13072;DHT22;6602;58.934;11.166;2023-05-16T12:13:28;18.50;99.90
13072;DHT22;6602;58.934;11.166;2023-05-16T12:18:37;18.40;99.90
13072;DHT22;6602;58.934;11.166;2023-05-16T12:23:41;18.20;99.90
13072;DHT22;6602;58.934;11.166;2023-05-16T12:28:52;18.10;99.90
13072;DHT22;6602;58.934;11.166;2023-05-16T12:34:17;18.10;99.90
13072;DHT22;6602;58.934;11.166;2023-05-16T12:39:20;18.10;99.90
13072;DHT22;6602;58.934;11.166;2023-05-16T12:44:31;18.20;99.90
13072;DHT22;6602;58.934;11.166;2023-05-16T12:49:47;18.20;99.90
13072;DHT22;6602;58.934;11.166;2023-05-16T12:54:49;18.20;99.90
13072;DHT22;6602;58.934;11.166;2023-05-16T12:59:55;18.20;99.90
13072;DHT22;6602;58.934;11.166;2023-05-16T13:05:00;18.40;99.90
13072;DHT22;6602;58.934;11.166;2023-05-16T13:10:01;18.40;99.90
13072;DHT22;6602;58.934;11.166;2023-05-16T13:15:08;18.40;99.90
13072;DHT22;6602;58.934;11.166;2023-05-16T13:20:10;18.20;99.90
13072;DHT22;6602;58.934;11.166;2023-05-16T13:25:15;18.10;99.90
13072;DHT22;6602;58.934;11.166;2023-05-16T13:30:22;18.10;99.90
13072;DHT22;6602;58.934;11.166;2023-05-16T13:35:33;18.10;99.90
13072;DHT22;6602;58.934;11.166;2023-05-16T13:41:35;17.90;99.90
13072;DHT22;6602;58.934;11.166;2023-05-16T13:46:49;17.80;99.90
13072;DHT22;6602;58.934;11.166;2023-05-16T13:51:51;17.90;99.90
13072;DHT22;6602;58.934;11.166;2023-05-16T13:57:02;17.90;99.90
13072;DHT22;6602;58.934;11.166;2023-05-16T14:02:04;18.00;99.90
13072;DHT22;6602;58.934;11.166;2023-05-16T14:07:06;17.90;99.90
13072;DHT22;6602;58.934;11.166;2023-05-16T14:12:14;17.90;99.90
13072;DHT22;6602;58.934;11.166;2023-05-16T14:17:38;17.90;99.90
13072;DHT22;6602;58.934;11.166;2023-05-16T14:23:18;17.80;99.90
13072;DHT22;6602;58.934;11.166;2023-05-16T14:28:23;17.60;99.90
13072;DHT22;6602;58.934;11.166;2023-05-16T14:34:00;17.50;99.90
13072;DHT22;6602;58.934;11.166;2023-05-16T14:39:04;17.30;99.90
13072;DHT22;6602;58.934;11.166;2023-05-16T14:44:08;17.20;99.90
13072;DHT22;6602;58.934;11.166;2023-05-16T14:49:20;17.10;99.90
13072;DHT22;6602;58.934;11.166;2023-05-16T14:54:23;16.60;99.90
13072;DHT22;6602;58.934;11.166;2023-05-16T14:59:28;16.40;99.90
13072;DHT22;6602;58.934;11.166;2023-05-16T15:04:33;16.30;99.90
13072;DHT22;6602;58.934;11.166;2023-05-16T15:09:37;16.10;99.90
13072;DHT22;6602;58.934;11.166;2023-05-16T15:14:40;15.90;99.90
13072;DHT22;6602;58.934;11.166;2023-05-16T15:20:11;15.80;99.90
13072;DHT22;6602;58.934;11.166;2023-05-16T15:25:24;15.80;99.90
13072;DHT22;6602;58.934;11.166;2023-05-16T15:30:26;15.60;99.90
13072;DHT22;6602;58.934;11.166;2023-05-16T15:35:32;15.60;99.90
13072;DHT22;6602;58.934;11.166;2023-05-16T15:40:37;15.50;99.90
13072;DHT22;6602;58.934;11.166;2023-05-16T15:45:39;15.50;99.90
13072;DHT22;6602;58.934;11.166;2023-05-16T15:50:49;15.60;99.90
13072;DHT22;6602;58.934;11.166;2023-05-16T15:56:04;15.60;99.90
13072;DHT22;6602;58.934;11.166;2023-05-16T16:01:56;15.70;99.90
13072;DHT22;6602;58.934;11.166;2023-05-16T16:07:39;15.60;99.90
13072;DHT22;6602;58.934;11.166;2023-05-16T16:13:05;15.60;99.90
13072;DHT22;6602;58.934;11.166;2023-05-16T16:18:13;15.60;99.90
13072;DHT22;6602;58.934;11.166;2023-05-16T16:23:37;15.70;99.90
13072;DHT22;6602;58.934;11.166;2023-05-16T16:28:52;15.70;99.90
13072;DHT22;6602;58.934;11.166;2023-05-16T16:34:34;15.60;99.90
13072;DHT22;6602;58.934;11.166;2023-05-16T16:40:13;15.60;99.90
13072;DHT22;6602;58.934;11.166;2023-05-16T16:45:39;15.40;99.90
13072;DHT22;6602;58.934;11.166;2023-05-16T16:51:03;15.40;99.90
13072;DHT22;6602;58.934;11.166;2023-05-16T16:56:09;15.40;99.90
13072;DHT22;6602;58.934;11.166;2023-05-16T17:01:28;15.20;99.90
13072;DHT22;6602;58.934;11.166;2023-05-16T17:06:57;15.10;99.90
13072;DHT22;6602;58.934;11.166;2023-05-16T17:12:22;14.80;99.90
13072;DHT22;6602;58.934;11.166;2023-05-16T17:17:59;14.70;99.90
13072;DHT22;6602;58.934;11.166;2023-05-16T17:23:30;14.60;99.90
13072;DHT22;6602;58.934;11.166;2023-05-16T17:28:39;14.40;99.90
13072;DHT22;6602;58.934;11.166;2023-05-16T17:34:08;14.40;99.90
13072;DHT22;6602;58.934;11.166;2023-05-16T17:39:39;14.30;99.90
13072;DHT22;6602;58.934;11.166;2023-05-16T17:44:40;14.20;99.90
13072;DHT22;6602;58.934;11.166;2023-05-16T17:49:47;14.20;99.90
13072;DHT22;6602;58.934;11.166;2023-05-16T17:54:51;14.20;99.90
13072;DHT22;6602;58.934;11.166;2023-05-16T17:59:53;14.10;99.90
13072;DHT22;6602;58.934;11.166;2023-05-16T18:04:54;14.00;99.90
13072;DHT22;6602;58.934;11.166;2023-05-16T18:09:55;14.00;99.90
13072;DHT22;6602;58.934;11.166;2023-05-16T18:14:58;13.90;99.90
13072;DHT22;6602;58.934;11.166;2023-05-16T18:19:59;13.90;99.90
13072;DHT22;6602;58.934;11.166;2023-05-16T18:25:11;13.90;99.90
13072;DHT22;6602;58.934;11.166;2023-05-16T18:30:14;13.80;99.90
13072;DHT22;6602;58.934;11.166;2023-05-16T18:35:25;13.90;99.90
13072;DHT22;6602;58.934;11.166;2023-05-16T18:40:33;13.80;99.90
13072;DHT22;6602;58.934;11.166;2023-05-16T18:45:34;13.90;99.90
13072;DHT22;6602;58.934;11.166;2023-05-16T18:50:39;14.00;99.90
13072;DHT22;6602;58.934;11.166;2023-05-16T18:55:49;14.00;99.90
13072;DHT22;6602;58.934;11.166;2023-05-16T19:00:59;14.00;99.90
13072;DHT22;6602;58.934;11.166;2023-05-16T19:06:00;14.00;99.90
13072;DHT22;6602;58.934;11.166;2023-05-16T19:11:03;14.00;99.90
13072;DHT22;6602;58.934;11.166;2023-05-16T19:16:07;14.00;99.90
13072;DHT22;6602;58.934;11.166;2023-05-16T19:21:12;14.00;99.90
13072;DHT22;6602;58.934;11.166;2023-05-16T19:26:34;14.00;99.90
13072;DHT22;6602;58.934;11.166;2023-05-16T19:31:46;13.90;99.90
13072;DHT22;6602;58.934;11.166;2023-05-16T19:36:59;13.80;99.90
13072;DHT22;6602;58.934;11.166;2023-05-16T19:42:08;13.80;99.90
13072;DHT22;6602;58.934;11.166;2023-05-16T19:47:41;13.80;99.90
13072;DHT22;6602;58.934;11.166;2023-05-16T19:52:45;13.90;99.90
13072;DHT22;6602;58.934;11.166;2023-05-16T19:57:48;14.00;99.90
13072;DHT22;6602;58.934;11.166;2023-05-16T20:02:52;13.80;99.90
13072;DHT22;6602;58.934;11.166;2023-05-16T20:08:01;13.80;99.90
13072;DHT22;6602;58.934;11.166;2023-05-16T20:13:24;13.70;99.90
13072;DHT22;6602;58.934;11.166;2023-05-16T20:18:27;13.60;99.90
13072;DHT22;6602;58.934;11.166;2023-05-16T20:23:33;13.50;99.90
13072;DHT22;6602;58.934;11.166;2023-05-16T20:28:38;13.50;99.90
13072;DHT22;6602;58.934;11.166;2023-05-16T20:33:45;13.40;99.90
13072;DHT22;6602;58.934;11.166;2023-05-16T20:38:46;13.20;99.90
13072;DHT22;6602;58.934;11.166;2023-05-16T20:43:53;13.10;99.90
13072;DHT22;6602;58.934;11.166;2023-05-16T20:48:58;13.00;99.90
13072;DHT22;6602;58.934;11.166;2023-05-16T20:54:22;12.90;99.90
13072;DHT22;6602;58.934;11.166;2023-05-16T20:59:23;12.70;99.90
13072;DHT22;6602;58.934;11.166;2023-05-16T21:04:29;12.70;99.90
13072;DHT22;6602;58.934;11.166;2023-05-16T21:09:34;12.60;99.90
13072;DHT22;6602;58.934;11.166;2023-05-16T21:14:46;12.50;99.90
13072;DHT22;6602;58.934;11.166;2023-05-16T21:20:16;12.40;99.90
13072;DHT22;6602;58.934;11.166;2023-05-16T21:25:23;12.30;99.90
13072;DHT22;6602;58.934;11.166;2023-05-16T21:30:23;12.20;99.90
13072;DHT22;6602;58.934;11.166;2023-05-16T21:35:24;12.10;99.90
13072;DHT22;6602;58.934;11.166;2023-05-16T21:40:26;12.10;99.90
13072;DHT22;6602;58.934;11.166;2023-05-16T21:45:28;12.10;99.90
13072;DHT22;6602;58.934;11.166;2023-05-16T21:50:36;12.00;99.90
13072;DHT22;6602;58.934;11.166;2023-05-16T21:55:48;11.90;99.90
13072;DHT22;6602;58.934;11.166;2023-05-16T22:00:57;11.80;99.90
13072;DHT22;6602;58.934;11.166;2023-05-16T22:06:02;11.80;99.90
13072;DHT22;6602;58.934;11.166;2023-05-16T22:11:02;11.80;99.90
13072;DHT22;6602;58.934;11.166;2023-05-16T22:16:04;11.70;99.90
13072;DHT22;6602;58.934;11.166;2023-05-16T22:21:12;11.60;99.90
13072;DHT22;6602;58.934;11.166;2023-05-16T22:26:19;11.60;99.90
13072;DHT22;6602;58.934;11.166;2023-05-16T22:31:22;11.50;99.90
13072;DHT22;6602;58.934;11.166;2023-05-16T22:36:27;11.50;99.90
13072;DHT22;6602;58.934;11.166;2023-05-16T22:41:30;11.50;99.90
13072;DHT22;6602;58.934;11.166;2023-05-16T22:46:32;11.40;99.90
13072;DHT22;6602;58.934;11.166;2023-05-16T22:51:33;11.30;99.90
13072;DHT22;6602;58.934;11.166;2023-05-16T22:56:34;11.30;99.90
13072;DHT22;6602;58.934;11.166;2023-05-16T23:01:36;11.20;99.90
13072;DHT22;6602;58.934;11.166;2023-05-16T23:06:38;11.20;99.90
13072;DHT22;6602;58.934;11.166;2023-05-16T23:11:39;11.10;99.90
13072;DHT22;6602;58.934;11.166;2023-05-16T23:16:43;11.10;99.90
13072;DHT22;6602;58.934;11.166;2023-05-16T23:21:46;11.10;99.90
13072;DHT22;6602;58.934;11.166;2023-05-16T23:26:47;11.00;99.90
13072;DHT22;6602;58.934;11.166;2023-05-16T23:31:48;11.00;99.90
13072;DHT22;6602;58.934;11.166;2023-05-16T23:36:49;10.90;99.90
13072;DHT22;6602;58.934;11.166;2023-05-16T23:41:54;10.90;99.90
13072;DHT22;6602;58.934;11.166;2023-05-16T23:46:55;10.80;99.90
13072;DHT22;6602;58.934;11.166;2023-05-16T23:52:00;10.80;99.90
13072;DHT22;6602;58.934;11.166;2023-05-16T23:57:05;10.70;99.90
